createdAt,value
2022-12-13T00:03:14.994Z,53.1
2022-12-13T00:08:17.960Z,53
2022-12-13T00:13:18.006Z,53.1
2022-12-13T00:18:18.308Z,53.1
2022-12-13T00:23:18.493Z,53.1
2022-12-13T00:28:18.682Z,53.1
2022-12-13T00:33:21.560Z,53.1
2022-12-13T00:38:21.374Z,53
2022-12-13T00:43:24.197Z,53
2022-12-13T00:48:24.055Z,53
2022-12-13T00:53:24.280Z,53
2022-12-13T00:58:27.070Z,53
2022-12-13T01:03:26.640Z,53
2022-12-13T01:08:26.574Z,52.9
2022-12-13T01:13:26.831Z,53
2022-12-13T01:18:27.066Z,53
2022-12-13T01:23:27.301Z,52.9
2022-12-13T01:28:27.364Z,53
2022-12-13T01:33:29.932Z,52.9
2022-12-13T01:38:29.813Z,52.8
2022-12-13T01:43:29.839Z,52.8
2022-12-13T01:48:30.374Z,52.8
2022-12-13T01:53:30.676Z,52.8
2022-12-13T01:58:30.887Z,52.8
2022-12-13T02:03:32.920Z,52.9
2022-12-13T02:08:35.923Z,52.9
2022-12-13T02:13:33.113Z,52.8
2022-12-13T02:18:33.431Z,53
2022-12-13T02:23:33.556Z,53
2022-12-13T02:28:33.707Z,52.9
2022-12-13T02:33:33.876Z,52.9
2022-12-13T02:38:34.129Z,53.1
2022-12-13T02:43:34.352Z,52.8
2022-12-13T02:48:34.642Z,52.9
2022-12-13T02:53:34.997Z,52.9
2022-12-13T02:58:35.410Z,53
2022-12-13T03:03:35.717Z,52.9
2022-12-13T03:08:36.124Z,53
2022-12-13T03:13:36.433Z,52.9
2022-12-13T03:18:39.297Z,53.1
2022-12-13T03:23:38.949Z,52.8
2022-12-13T03:28:39.264Z,52.9
2022-12-13T03:33:39.324Z,52.8
2022-12-13T03:38:39.769Z,52.8
2022-12-13T03:43:39.946Z,52.8
2022-12-13T03:48:40.185Z,52.8
2022-12-13T03:53:40.047Z,52.9
2022-12-13T03:58:40.347Z,52.8
2022-12-13T04:03:40.652Z,52.9
2022-12-13T04:08:41.004Z,52.9
2022-12-13T04:13:43.662Z,52.8
2022-12-13T04:18:43.279Z,52.7
2022-12-13T04:23:43.456Z,52.8
2022-12-13T04:28:46.081Z,52.7
2022-12-13T04:33:43.729Z,52.6
2022-12-13T04:38:43.991Z,52.7
2022-12-13T04:43:44.137Z,52.6
2022-12-13T04:48:44.257Z,52.4
2022-12-13T04:53:44.598Z,52.4
2022-12-13T04:58:44.811Z,52.4
2022-12-13T05:03:45.229Z,52.4
2022-12-13T05:08:45.609Z,52.1
2022-12-13T05:13:45.581Z,52.2
2022-12-13T05:18:45.801Z,52.1
2022-12-13T05:23:46.155Z,52
2022-12-13T05:28:49.153Z,52
2022-12-13T05:33:48.906Z,52.1
2022-12-13T05:38:48.934Z,52
2022-12-13T05:43:49.343Z,52.2
2022-12-13T05:48:49.633Z,52
2022-12-13T05:53:53.467Z,52.1
2022-12-13T05:58:53.262Z,52.1
2022-12-13T06:03:54.912Z,52.1
2022-12-13T06:08:57.228Z,51.9
2022-12-13T06:14:00.859Z,51.8
2022-12-13T06:19:03.532Z,51.8
2022-12-13T06:23:57.303Z,51.8
2022-12-13T06:28:57.547Z,51.9
2022-12-13T06:33:57.814Z,51.8
2022-12-13T06:39:00.896Z,51.7
2022-12-13T06:44:00.569Z,51.5
2022-12-13T06:49:03.225Z,51.5
2022-12-13T06:54:03.078Z,51.4
2022-12-13T06:59:03.212Z,51.5
2022-12-13T07:04:03.441Z,51.3
2022-12-13T07:09:03.383Z,51.3
2022-12-13T07:14:06.504Z,51
2022-12-13T07:19:13.432Z,50.8
2022-12-13T07:24:08.771Z,50.7
2022-12-13T07:29:09.076Z,50.4
2022-12-13T07:34:15.542Z,50.4
2022-12-13T07:39:11.934Z,50.3
2022-12-13T07:44:12.217Z,50.1
2022-12-13T07:49:12.446Z,50
2022-12-13T07:54:12.824Z,49.9
2022-12-13T07:59:15.930Z,50
2022-12-13T08:04:15.771Z,50.1
2022-12-13T08:09:16.127Z,49.9
2022-12-13T08:14:16.288Z,49.8
2022-12-13T08:24:19.423Z,49.7
2022-12-13T08:29:33.836Z,49.5
2022-12-13T08:34:22.093Z,49.6
2022-12-13T08:39:27.983Z,49.6
2022-12-13T08:44:22.731Z,49.6
2022-12-13T08:49:22.787Z,49.6
2022-12-13T08:54:31.222Z,49.4
2022-12-13T08:59:22.962Z,49.3
2022-12-13T09:04:31.881Z,49.3
2022-12-13T09:09:27.661Z,49.2
2022-12-13T09:14:33.587Z,49.2
2022-12-13T09:19:37.337Z,49.3
2022-12-13T09:24:36.092Z,49.2
2022-12-13T09:29:31.065Z,49.4
2022-12-13T09:34:30.995Z,49.3
2022-12-13T09:39:31.250Z,49.4
2022-12-13T09:44:42.668Z,49.5
2022-12-13T09:49:34.995Z,49.5
2022-12-13T09:54:33.929Z,49.5
2022-12-13T09:59:36.331Z,49.5
2022-12-13T10:04:36.028Z,49.4
2022-12-13T10:09:36.342Z,49.5
2022-12-13T10:14:36.389Z,49.5
2022-12-13T10:19:36.328Z,49.5
2022-12-13T10:24:37.902Z,49.6
2022-12-13T10:29:37.103Z,49.5
2022-12-13T10:34:37.593Z,49.3
2022-12-13T10:39:37.866Z,49.4
2022-12-13T10:44:37.902Z,49.5
2022-12-13T10:49:37.989Z,49.4
2022-12-13T10:54:38.263Z,49.4
2022-12-13T10:59:38.217Z,49.3
2022-12-13T11:04:39.195Z,48.9
2022-12-13T11:09:39.785Z,48.6
2022-12-13T11:14:43.417Z,48.1
2022-12-13T11:19:40.702Z,47.8
2022-12-13T11:24:40.969Z,47.8
2022-12-13T11:29:42.875Z,47.5
2022-12-13T11:34:41.654Z,47.4
2022-12-13T11:39:44.529Z,47.3
2022-12-13T11:44:47.696Z,47.2
2022-12-13T11:49:44.469Z,47.1
2022-12-13T11:54:45.037Z,47.1
2022-12-13T11:59:45.228Z,47.1
2022-12-13T12:04:45.732Z,46.9
2022-12-13T12:09:48.757Z,46.8
2022-12-13T12:14:48.643Z,46.8
2022-12-13T12:19:48.745Z,46.8
2022-12-13T12:24:48.976Z,46.6
2022-12-13T12:29:49.097Z,46.7
2022-12-13T12:34:49.420Z,46.6
2022-12-13T12:39:49.546Z,46.5
2022-12-13T12:44:49.765Z,46.6
2022-12-13T12:49:50.000Z,46.4
2022-12-13T12:54:50.254Z,46.5
2022-12-13T12:59:50.483Z,46.5
2022-12-13T13:04:50.533Z,46.4
2022-12-13T13:09:50.726Z,46.4
2022-12-13T13:14:51.007Z,46.4
2022-12-13T13:19:51.269Z,46.4
2022-12-13T13:24:51.717Z,46.6
2022-12-13T13:29:54.608Z,46.5
2022-12-13T13:34:54.132Z,46.4
2022-12-13T13:39:53.957Z,46.5
2022-12-13T13:44:54.172Z,46.7
2022-12-13T13:49:58.496Z,46.8
2022-12-13T13:54:54.669Z,46.2
2022-12-13T13:59:57.736Z,46.3
2022-12-13T14:04:57.405Z,46.4
2022-12-13T14:09:57.766Z,46.5
2022-12-13T14:15:01.105Z,46.5
2022-12-13T14:19:59.837Z,46.5
2022-12-13T14:25:02.528Z,46.6
2022-12-13T14:30:26.615Z,46.6
2022-12-13T14:35:25.120Z,46.6
2022-12-13T14:40:04.626Z,46.6
2022-12-13T14:45:05.030Z,46.6
2022-12-13T14:50:07.928Z,46.5
2022-12-13T14:55:07.649Z,46.6
2022-12-13T15:00:09.758Z,46.7
2022-12-13T15:05:08.725Z,46.8
2022-12-13T15:10:08.893Z,47
2022-12-13T15:15:11.788Z,46.9
2022-12-13T15:20:11.509Z,47
2022-12-13T15:25:11.741Z,47
2022-12-13T15:30:12.125Z,47
2022-12-13T15:35:14.993Z,47.2
2022-12-13T15:40:14.460Z,47.2
2022-12-13T15:45:17.389Z,47.1
2022-12-13T15:50:16.821Z,47.2
2022-12-13T15:55:19.393Z,47.3
2022-12-13T16:00:17.487Z,47.2
2022-12-13T16:05:17.584Z,47.3
2022-12-13T16:10:17.963Z,47.4
2022-12-13T16:15:20.649Z,47.2
2022-12-13T16:20:17.986Z,47.3
2022-12-13T16:25:18.256Z,47.2
2022-12-13T16:30:18.311Z,47.4
2022-12-13T16:35:18.304Z,47.4
2022-12-13T16:40:18.633Z,47.4
2022-12-13T16:45:40.944Z,47.5
2022-12-13T16:50:19.096Z,47.6
2022-12-13T16:55:19.259Z,47.5
2022-12-13T17:00:19.133Z,47.5
2022-12-13T17:05:22.001Z,47.4
2022-12-13T17:10:21.522Z,47.4
2022-12-13T17:15:21.803Z,47.2
2022-12-13T17:20:22.122Z,47.3
2022-12-13T17:25:22.055Z,47.4
2022-12-13T17:30:22.166Z,47.1
2022-12-13T17:35:22.545Z,47
2022-12-13T17:40:23.048Z,46.9
2022-12-13T17:45:26.000Z,46.9
2022-12-13T17:50:25.627Z,46.8
2022-12-13T17:55:25.753Z,46.9
2022-12-13T18:00:25.954Z,46.9
2022-12-13T18:05:25.454Z,47.4
2022-12-13T18:10:29.937Z,47.7
2022-12-13T18:15:27.334Z,48
2022-12-13T18:20:27.213Z,48.2
2022-12-13T18:25:27.280Z,48.2
2022-12-13T18:30:27.303Z,48.3
2022-12-13T18:35:26.855Z,48.6
2022-12-13T18:40:27.093Z,48.7
2022-12-13T18:45:30.141Z,48.8
2022-12-13T18:50:29.896Z,48.9
2022-12-13T18:55:29.990Z,48.9
2022-12-13T19:00:30.143Z,49.1
2022-12-13T19:05:30.187Z,49.2
2022-12-13T19:10:30.419Z,49.1
2022-12-13T19:15:30.576Z,48.9
2022-12-13T19:20:30.611Z,49
2022-12-13T19:25:30.375Z,49
2022-12-13T19:30:30.409Z,49
2022-12-13T19:35:30.565Z,49.1
2022-12-13T19:40:33.349Z,49.1
2022-12-13T19:45:33.023Z,49.1
2022-12-13T19:50:33.322Z,49
2022-12-13T19:55:33.518Z,48.9
2022-12-13T20:00:33.602Z,48.9
2022-12-13T20:05:33.958Z,49
2022-12-13T20:10:33.589Z,49
2022-12-13T20:15:33.844Z,49.1
2022-12-13T20:21:02.146Z,49
2022-12-13T20:25:34.043Z,49.1
2022-12-13T20:30:34.300Z,49.4
2022-12-13T20:35:45.262Z,49.2
2022-12-13T20:40:36.699Z,49.3
2022-12-13T20:45:36.703Z,49.2
2022-12-13T20:50:36.701Z,49.2
2022-12-13T20:55:36.808Z,49.1
2022-12-13T21:00:36.728Z,49.3
2022-12-13T21:05:39.447Z,49.3
2022-12-13T21:10:38.936Z,49.4
2022-12-13T21:15:39.151Z,49.5
2022-12-13T21:20:39.688Z,49.7
2022-12-13T21:25:39.784Z,49.7
2022-12-13T21:30:40.133Z,49.6
2022-12-13T21:35:40.368Z,49.6
2022-12-13T21:40:40.520Z,49.8
2022-12-13T21:45:40.783Z,49.7
2022-12-13T21:50:40.980Z,49.8
2022-12-13T21:55:41.458Z,49.9
2022-12-13T22:00:41.572Z,49.7
2022-12-13T22:05:41.939Z,49.9
2022-12-13T22:10:42.022Z,49.7
2022-12-13T22:15:42.254Z,49.9
2022-12-13T22:20:42.398Z,49.9
2022-12-13T22:25:42.665Z,49.8
2022-12-13T22:30:43.017Z,49.9
2022-12-13T22:35:43.064Z,49.8
2022-12-13T22:40:43.256Z,49.9
2022-12-13T22:45:43.553Z,49.9
2022-12-13T22:50:43.734Z,50
2022-12-13T22:55:43.876Z,50
2022-12-13T23:00:44.141Z,50.1
2022-12-13T23:05:44.301Z,50
2022-12-13T23:10:44.577Z,50
2022-12-13T23:15:49.273Z,49.9
2022-12-13T23:20:45.051Z,49.9
2022-12-13T23:25:45.189Z,50.1
2022-12-13T23:30:45.544Z,50
2022-12-13T23:35:45.909Z,50.2
2022-12-13T23:40:45.844Z,50.2
2022-12-13T23:45:46.050Z,50.2
2022-12-13T23:50:46.460Z,50.3
2022-12-13T23:55:48.841Z,50.2
